sensor_id;sensor_type;location;lat;lon;timestamp;temperature;humidity
75985;DHT22;65033;44.660;37.758;2024-03-22T00:00:27;9.24;118.99
75985;DHT22;65033;44.660;37.758;2024-03-22T00:01:30;9.29;118.99
75985;DHT22;65033;44.660;37.758;2024-03-22T00:02:32;9.27;118.99
75985;DHT22;65033;44.660;37.758;2024-03-22T00:03:35;9.30;118.99
75985;DHT22;65033;44.660;37.758;2024-03-22T00:04:37;9.32;118.99
75985;DHT22;65033;44.660;37.758;2024-03-22T00:05:39;9.33;118.99
75985;DHT22;65033;44.660;37.758;2024-03-22T00:06:46;9.35;118.99
75985;DHT22;65033;44.660;37.758;2024-03-22T00:07:49;9.37;118.99
75985;DHT22;65033;44.660;37.758;2024-03-22T00:08:57;9.39;118.99
75985;DHT22;65033;44.660;37.758;2024-03-22T00:09:59;9.39;118.99
75985;DHT22;65033;44.660;37.758;2024-03-22T00:11:02;9.37;118.99
75985;DHT22;65033;44.660;37.758;2024-03-22T00:12:09;9.35;118.99
75985;DHT22;65033;44.660;37.758;2024-03-22T00:13:11;9.32;118.99
75985;DHT22;65033;44.660;37.758;2024-03-22T00:14:16;9.32;118.99
75985;DHT22;65033;44.660;37.758;2024-03-22T00:15:18;9.26;118.99
75985;DHT22;65033;44.660;37.758;2024-03-22T00:16:20;9.27;118.99
75985;DHT22;65033;44.660;37.758;2024-03-22T00:17:25;9.24;118.99
75985;DHT22;65033;44.660;37.758;2024-03-22T00:18:27;9.22;118.99
75985;DHT22;65033;44.660;37.758;2024-03-22T00:19:32;9.21;118.99
75985;DHT22;65033;44.660;37.758;2024-03-22T00:20:34;9.18;118.99
75985;DHT22;65033;44.660;37.758;2024-03-22T00:21:36;9.19;118.99
75985;DHT22;65033;44.660;37.758;2024-03-22T00:22:40;9.18;118.99
75985;DHT22;65033;44.660;37.758;2024-03-22T00:23:45;9.17;118.99
75985;DHT22;65033;44.660;37.758;2024-03-22T00:24:47;9.17;118.99
75985;DHT22;65033;44.660;37.758;2024-03-22T00:25:51;9.18;118.99
75985;DHT22;65033;44.660;37.758;2024-03-22T00:26:54;9.16;118.99
75985;DHT22;65033;44.660;37.758;2024-03-22T00:27:56;9.14;118.99
75985;DHT22;65033;44.660;37.758;2024-03-22T00:28:58;9.12;118.99
75985;DHT22;65033;44.660;37.758;2024-03-22T00:30:00;9.12;118.99
75985;DHT22;65033;44.660;37.758;2024-03-22T00:31:03;9.10;118.99
75985;DHT22;65033;44.660;37.758;2024-03-22T00:32:06;9.14;118.99
75985;DHT22;65033;44.660;37.758;2024-03-22T00:33:09;9.14;118.99
75985;DHT22;65033;44.660;37.758;2024-03-22T00:34:11;9.17;118.99
75985;DHT22;65033;44.660;37.758;2024-03-22T00:35:14;9.17;118.99
75985;DHT22;65033;44.660;37.758;2024-03-22T00:36:16;9.18;118.99
75985;DHT22;65033;44.660;37.758;2024-03-22T00:37:21;9.19;118.99
75985;DHT22;65033;44.660;37.758;2024-03-22T00:38:25;9.20;118.99
75985;DHT22;65033;44.660;37.758;2024-03-22T00:39:27;9.21;118.99
75985;DHT22;65033;44.660;37.758;2024-03-22T00:40:29;9.22;118.99
75985;DHT22;65033;44.660;37.758;2024-03-22T00:41:31;9.22;118.99
75985;DHT22;65033;44.660;37.758;2024-03-22T00:42:34;9.22;118.99
75985;DHT22;65033;44.660;37.758;2024-03-22T00:43:36;9.22;118.99
75985;DHT22;65033;44.660;37.758;2024-03-22T00:44:38;9.22;118.99
75985;DHT22;65033;44.660;37.758;2024-03-22T00:45:41;9.22;118.99
75985;DHT22;65033;44.660;37.758;2024-03-22T00:46:43;9.22;118.99
75985;DHT22;65033;44.660;37.758;2024-03-22T00:47:45;9.18;118.99
75985;DHT22;65033;44.660;37.758;2024-03-22T00:48:47;9.18;118.99
75985;DHT22;65033;44.660;37.758;2024-03-22T00:49:50;9.16;118.99
75985;DHT22;65033;44.660;37.758;2024-03-22T00:50:52;9.12;118.99
75985;DHT22;65033;44.660;37.758;2024-03-22T00:51:54;9.08;118.99
75985;DHT22;65033;44.660;37.758;2024-03-22T00:52:58;9.08;118.99
75985;DHT22;65033;44.660;37.758;2024-03-22T00:54:02;9.05;118.99
75985;DHT22;65033;44.660;37.758;2024-03-22T00:55:04;9.04;118.99
75985;DHT22;65033;44.660;37.758;2024-03-22T00:56:07;9.03;118.99
75985;DHT22;65033;44.660;37.758;2024-03-22T00:57:09;9.02;118.99
75985;DHT22;65033;44.660;37.758;2024-03-22T00:58:11;9.04;118.99
75985;DHT22;65033;44.660;37.758;2024-03-22T00:59:14;9.02;118.99
75985;DHT22;65033;44.660;37.758;2024-03-22T01:00:17;9.00;118.99
75985;DHT22;65033;44.660;37.758;2024-03-22T01:01:21;9.00;118.99
75985;DHT22;65033;44.660;37.758;2024-03-22T01:02:23;9.02;118.99
75985;DHT22;65033;44.660;37.758;2024-03-22T01:03:25;9.00;118.99
75985;DHT22;65033;44.660;37.758;2024-03-22T01:04:27;9.02;118.99
75985;DHT22;65033;44.660;37.758;2024-03-22T01:05:29;9.01;118.99
75985;DHT22;65033;44.660;37.758;2024-03-22T01:06:32;8.98;118.99
75985;DHT22;65033;44.660;37.758;2024-03-22T01:07:35;8.96;118.99
75985;DHT22;65033;44.660;37.758;2024-03-22T01:08:37;8.98;118.99
75985;DHT22;65033;44.660;37.758;2024-03-22T01:09:41;8.97;118.99
75985;DHT22;65033;44.660;37.758;2024-03-22T01:10:46;8.94;118.99
75985;DHT22;65033;44.660;37.758;2024-03-22T01:11:48;8.93;118.99
75985;DHT22;65033;44.660;37.758;2024-03-22T01:12:50;8.91;118.99
75985;DHT22;65033;44.660;37.758;2024-03-22T01:13:52;8.85;118.99
75985;DHT22;65033;44.660;37.758;2024-03-22T01:14:54;8.83;118.99
75985;DHT22;65033;44.660;37.758;2024-03-22T01:15:57;8.82;118.99
75985;DHT22;65033;44.660;37.758;2024-03-22T01:16:59;8.79;118.99
75985;DHT22;65033;44.660;37.758;2024-03-22T01:18:01;8.78;118.99
75985;DHT22;65033;44.660;37.758;2024-03-22T01:19:03;8.78;118.99
75985;DHT22;65033;44.660;37.758;2024-03-22T01:20:06;8.77;118.99
75985;DHT22;65033;44.660;37.758;2024-03-22T01:21:08;8.72;118.99
75985;DHT22;65033;44.660;37.758;2024-03-22T01:22:11;8.70;118.99
75985;DHT22;65033;44.660;37.758;2024-03-22T01:23:13;8.61;118.99
75985;DHT22;65033;44.660;37.758;2024-03-22T01:24:15;8.58;118.99
75985;DHT22;65033;44.660;37.758;2024-03-22T01:25:19;8.59;118.99
75985;DHT22;65033;44.660;37.758;2024-03-22T01:26:21;8.58;118.99
75985;DHT22;65033;44.660;37.758;2024-03-22T01:27:23;8.57;118.99
75985;DHT22;65033;44.660;37.758;2024-03-22T01:28:26;8.53;118.99
75985;DHT22;65033;44.660;37.758;2024-03-22T01:29:28;8.49;118.99
75985;DHT22;65033;44.660;37.758;2024-03-22T01:30:33;8.44;118.99
75985;DHT22;65033;44.660;37.758;2024-03-22T01:31:36;8.41;118.99
75985;DHT22;65033;44.660;37.758;2024-03-22T01:32:38;8.38;118.99
75985;DHT22;65033;44.660;37.758;2024-03-22T01:33:41;8.37;118.99
75985;DHT22;65033;44.660;37.758;2024-03-22T01:34:43;8.35;118.99
75985;DHT22;65033;44.660;37.758;2024-03-22T01:35:45;8.30;118.99
75985;DHT22;65033;44.660;37.758;2024-03-22T01:36:47;8.29;118.99
75985;DHT22;65033;44.660;37.758;2024-03-22T01:37:53;8.27;118.99
75985;DHT22;65033;44.660;37.758;2024-03-22T01:38:55;8.27;118.99
75985;DHT22;65033;44.660;37.758;2024-03-22T01:39:57;8.29;118.99
75985;DHT22;65033;44.660;37.758;2024-03-22T01:41:01;8.28;118.99
75985;DHT22;65033;44.660;37.758;2024-03-22T01:42:03;8.27;118.99
75985;DHT22;65033;44.660;37.758;2024-03-22T01:43:05;8.26;118.99
75985;DHT22;65033;44.660;37.758;2024-03-22T01:44:08;8.23;118.99
75985;DHT22;65033;44.660;37.758;2024-03-22T01:45:14;8.24;118.99
75985;DHT22;65033;44.660;37.758;2024-03-22T01:46:17;8.23;118.99
75985;DHT22;65033;44.660;37.758;2024-03-22T01:47:19;8.19;118.99
75985;DHT22;65033;44.660;37.758;2024-03-22T01:48:21;8.16;118.99
75985;DHT22;65033;44.660;37.758;2024-03-22T01:49:25;8.14;118.99
75985;DHT22;65033;44.660;37.758;2024-03-22T01:50:28;8.15;118.99
75985;DHT22;65033;44.660;37.758;2024-03-22T01:51:30;8.15;118.99
75985;DHT22;65033;44.660;37.758;2024-03-22T01:52:31;8.15;118.99
75985;DHT22;65033;44.660;37.758;2024-03-22T01:53:34;8.14;118.99
75985;DHT22;65033;44.660;37.758;2024-03-22T01:54:37;8.17;118.99
75985;DHT22;65033;44.660;37.758;2024-03-22T01:55:40;8.16;118.99
75985;DHT22;65033;44.660;37.758;2024-03-22T01:56:43;8.15;118.99
75985;DHT22;65033;44.660;37.758;2024-03-22T01:57:46;8.17;118.99
75985;DHT22;65033;44.660;37.758;2024-03-22T01:58:51;8.14;118.99
75985;DHT22;65033;44.660;37.758;2024-03-22T01:59:54;8.12;118.99
75985;DHT22;65033;44.660;37.758;2024-03-22T02:00:57;8.13;118.99
75985;DHT22;65033;44.660;37.758;2024-03-22T02:02:00;8.11;118.99
75985;DHT22;65033;44.660;37.758;2024-03-22T02:03:05;8.08;118.99
75985;DHT22;65033;44.660;37.758;2024-03-22T02:04:07;8.08;118.99
75985;DHT22;65033;44.660;37.758;2024-03-22T02:05:13;8.06;118.99
75985;DHT22;65033;44.660;37.758;2024-03-22T02:06:17;8.06;118.99
75985;DHT22;65033;44.660;37.758;2024-03-22T02:07:19;8.04;118.99
75985;DHT22;65033;44.660;37.758;2024-03-22T02:08:22;8.05;118.99
75985;DHT22;65033;44.660;37.758;2024-03-22T02:09:24;8.03;118.99
75985;DHT22;65033;44.660;37.758;2024-03-22T02:10:27;8.01;118.99
75985;DHT22;65033;44.660;37.758;2024-03-22T02:11:29;7.94;118.99
75985;DHT22;65033;44.660;37.758;2024-03-22T02:12:33;7.90;118.99
75985;DHT22;65033;44.660;37.758;2024-03-22T02:13:35;7.87;118.99
75985;DHT22;65033;44.660;37.758;2024-03-22T02:14:38;7.82;118.99
75985;DHT22;65033;44.660;37.758;2024-03-22T02:15:40;7.72;118.99
75985;DHT22;65033;44.660;37.758;2024-03-22T02:16:43;7.61;118.99
75985;DHT22;65033;44.660;37.758;2024-03-22T02:17:45;7.54;118.99
75985;DHT22;65033;44.660;37.758;2024-03-22T02:18:47;7.53;118.99
75985;DHT22;65033;44.660;37.758;2024-03-22T02:19:49;7.49;118.99
75985;DHT22;65033;44.660;37.758;2024-03-22T02:20:52;7.45;118.99
75985;DHT22;65033;44.660;37.758;2024-03-22T02:21:54;7.39;118.99
75985;DHT22;65033;44.660;37.758;2024-03-22T02:22:56;7.40;118.99
75985;DHT22;65033;44.660;37.758;2024-03-22T02:24:00;7.34;118.99
75985;DHT22;65033;44.660;37.758;2024-03-22T02:25:02;7.34;118.99
75985;DHT22;65033;44.660;37.758;2024-03-22T02:26:05;7.31;118.99
75985;DHT22;65033;44.660;37.758;2024-03-22T02:27:08;7.31;118.99
75985;DHT22;65033;44.660;37.758;2024-03-22T02:28:10;7.32;118.99
75985;DHT22;65033;44.660;37.758;2024-03-22T02:29:12;7.39;118.99
75985;DHT22;65033;44.660;37.758;2024-03-22T02:30:14;7.40;118.99
75985;DHT22;65033;44.660;37.758;2024-03-22T02:31:17;7.43;118.99
75985;DHT22;65033;44.660;37.758;2024-03-22T02:32:19;7.47;118.99
75985;DHT22;65033;44.660;37.758;2024-03-22T02:33:21;7.49;118.99
75985;DHT22;65033;44.660;37.758;2024-03-22T02:34:23;7.49;118.99
75985;DHT22;65033;44.660;37.758;2024-03-22T02:35:26;7.53;118.99
75985;DHT22;65033;44.660;37.758;2024-03-22T02:36:28;7.56;118.99
75985;DHT22;65033;44.660;37.758;2024-03-22T02:37:30;7.59;118.99
75985;DHT22;65033;44.660;37.758;2024-03-22T02:38:33;7.61;118.99
75985;DHT22;65033;44.660;37.758;2024-03-22T02:39:37;7.63;118.99
75985;DHT22;65033;44.660;37.758;2024-03-22T02:40:39;7.63;118.99
75985;DHT22;65033;44.660;37.758;2024-03-22T02:41:42;7.64;118.99
75985;DHT22;65033;44.660;37.758;2024-03-22T02:42:44;7.64;118.99
75985;DHT22;65033;44.660;37.758;2024-03-22T02:43:46;7.67;118.99
75985;DHT22;65033;44.660;37.758;2024-03-22T02:44:48;7.67;118.99
75985;DHT22;65033;44.660;37.758;2024-03-22T02:45:50;7.68;118.99
75985;DHT22;65033;44.660;37.758;2024-03-22T02:46:53;7.69;118.99
75985;DHT22;65033;44.660;37.758;2024-03-22T02:47:55;7.69;118.99
75985;DHT22;65033;44.660;37.758;2024-03-22T02:48:57;7.69;118.99
75985;DHT22;65033;44.660;37.758;2024-03-22T02:49:59;7.67;118.99
75985;DHT22;65033;44.660;37.758;2024-03-22T02:51:02;7.69;118.99
75985;DHT22;65033;44.660;37.758;2024-03-22T02:52:04;7.69;118.99
75985;DHT22;65033;44.660;37.758;2024-03-22T02:53:06;7.68;118.99
75985;DHT22;65033;44.660;37.758;2024-03-22T02:54:09;7.67;118.99
75985;DHT22;65033;44.660;37.758;2024-03-22T02:55:13;7.65;118.99
75985;DHT22;65033;44.660;37.758;2024-03-22T02:56:15;7.64;118.99
75985;DHT22;65033;44.660;37.758;2024-03-22T02:57:17;7.65;118.99
75985;DHT22;65033;44.660;37.758;2024-03-22T02:58:21;7.68;118.99
75985;DHT22;65033;44.660;37.758;2024-03-22T02:59:26;7.68;118.99
75985;DHT22;65033;44.660;37.758;2024-03-22T03:00:28;7.70;118.99
75985;DHT22;65033;44.660;37.758;2024-03-22T03:01:31;7.72;118.99
75985;DHT22;65033;44.660;37.758;2024-03-22T03:02:34;7.75;118.99
75985;DHT22;65033;44.660;37.758;2024-03-22T03:03:36;7.73;118.99
75985;DHT22;65033;44.660;37.758;2024-03-22T03:04:38;7.65;118.99
75985;DHT22;65033;44.660;37.758;2024-03-22T03:05:41;7.67;118.99
75985;DHT22;65033;44.660;37.758;2024-03-22T03:06:43;7.69;118.99
75985;DHT22;65033;44.660;37.758;2024-03-22T03:07:47;7.73;118.99
75985;DHT22;65033;44.660;37.758;2024-03-22T03:08:49;7.76;118.99
75985;DHT22;65033;44.660;37.758;2024-03-22T03:09:51;7.82;118.99
75985;DHT22;65033;44.660;37.758;2024-03-22T03:10:55;7.84;118.99
75985;DHT22;65033;44.660;37.758;2024-03-22T03:11:57;7.88;118.99
75985;DHT22;65033;44.660;37.758;2024-03-22T03:13:00;7.90;118.99
75985;DHT22;65033;44.660;37.758;2024-03-22T03:14:02;7.92;118.99
75985;DHT22;65033;44.660;37.758;2024-03-22T03:15:05;7.93;118.99
75985;DHT22;65033;44.660;37.758;2024-03-22T03:16:07;7.98;118.99
75985;DHT22;65033;44.660;37.758;2024-03-22T03:17:09;7.98;118.99
75985;DHT22;65033;44.660;37.758;2024-03-22T03:18:11;7.97;118.99
75985;DHT22;65033;44.660;37.758;2024-03-22T03:19:14;7.99;118.99
75985;DHT22;65033;44.660;37.758;2024-03-22T03:20:17;7.99;118.99
75985;DHT22;65033;44.660;37.758;2024-03-22T03:21:19;8.00;118.99
75985;DHT22;65033;44.660;37.758;2024-03-22T03:22:22;7.98;118.99
75985;DHT22;65033;44.660;37.758;2024-03-22T03:23:24;7.98;118.99
75985;DHT22;65033;44.660;37.758;2024-03-22T03:24:27;7.96;118.99
75985;DHT22;65033;44.660;37.758;2024-03-22T03:25:29;7.96;118.99
75985;DHT22;65033;44.660;37.758;2024-03-22T03:26:33;7.97;118.99
75985;DHT22;65033;44.660;37.758;2024-03-22T03:27:35;7.98;118.99
75985;DHT22;65033;44.660;37.758;2024-03-22T03:28:37;7.94;118.99
75985;DHT22;65033;44.660;37.758;2024-03-22T03:29:40;7.94;118.99
75985;DHT22;65033;44.660;37.758;2024-03-22T03:30:42;7.92;118.99
75985;DHT22;65033;44.660;37.758;2024-03-22T03:31:44;7.89;118.99
75985;DHT22;65033;44.660;37.758;2024-03-22T03:32:46;7.84;118.99
75985;DHT22;65033;44.660;37.758;2024-03-22T03:33:49;7.79;118.99
75985;DHT22;65033;44.660;37.758;2024-03-22T03:34:51;7.74;118.99
75985;DHT22;65033;44.660;37.758;2024-03-22T03:35:53;7.72;118.99
75985;DHT22;65033;44.660;37.758;2024-03-22T03:36:55;7.64;118.99
75985;DHT22;65033;44.660;37.758;2024-03-22T03:37:58;7.61;118.99
75985;DHT22;65033;44.660;37.758;2024-03-22T03:39:01;7.55;118.99
75985;DHT22;65033;44.660;37.758;2024-03-22T03:40:04;7.49;118.99
75985;DHT22;65033;44.660;37.758;2024-03-22T03:41:05;7.44;118.99
75985;DHT22;65033;44.660;37.758;2024-03-22T03:42:09;7.45;118.99
75985;DHT22;65033;44.660;37.758;2024-03-22T03:43:12;7.44;118.99
75985;DHT22;65033;44.660;37.758;2024-03-22T03:44:14;7.43;118.99
75985;DHT22;65033;44.660;37.758;2024-03-22T03:45:16;7.40;118.99
75985;DHT22;65033;44.660;37.758;2024-03-22T03:46:18;7.39;118.99
75985;DHT22;65033;44.660;37.758;2024-03-22T03:47:21;7.35;118.99
75985;DHT22;65033;44.660;37.758;2024-03-22T03:48:23;7.32;118.99
75985;DHT22;65033;44.660;37.758;2024-03-22T03:49:25;7.43;118.99
75985;DHT22;65033;44.660;37.758;2024-03-22T03:50:27;8.30;118.99
75985;DHT22;65033;44.660;37.758;2024-03-22T03:51:29;8.80;118.99
75985;DHT22;65033;44.660;37.758;2024-03-22T03:52:32;8.53;118.99
75985;DHT22;65033;44.660;37.758;2024-03-22T03:53:34;8.34;118.99
75985;DHT22;65033;44.660;37.758;2024-03-22T03:54:36;8.13;118.99
75985;DHT22;65033;44.660;37.758;2024-03-22T03:55:38;8.03;118.99
75985;DHT22;65033;44.660;37.758;2024-03-22T03:56:40;7.78;118.99
75985;DHT22;65033;44.660;37.758;2024-03-22T03:57:44;7.57;118.99
75985;DHT22;65033;44.660;37.758;2024-03-22T03:58:47;7.35;118.99
75985;DHT22;65033;44.660;37.758;2024-03-22T03:59:49;7.25;118.99
75985;DHT22;65033;44.660;37.758;2024-03-22T04:00:52;7.03;118.99
75985;DHT22;65033;44.660;37.758;2024-03-22T04:01:55;6.90;118.99
75985;DHT22;65033;44.660;37.758;2024-03-22T04:02:57;6.84;118.99
75985;DHT22;65033;44.660;37.758;2024-03-22T04:03:59;6.70;118.99
75985;DHT22;65033;44.660;37.758;2024-03-22T04:05:01;6.67;118.99
75985;DHT22;65033;44.660;37.758;2024-03-22T04:06:04;6.60;118.99
75985;DHT22;65033;44.660;37.758;2024-03-22T04:07:06;6.60;118.99
75985;DHT22;65033;44.660;37.758;2024-03-22T04:08:09;6.58;118.99
75985;DHT22;65033;44.660;37.758;2024-03-22T04:09:11;6.50;118.99
75985;DHT22;65033;44.660;37.758;2024-03-22T04:10:13;6.42;118.99
75985;DHT22;65033;44.660;37.758;2024-03-22T04:11:15;6.35;118.99
75985;DHT22;65033;44.660;37.758;2024-03-22T04:12:18;6.29;118.99
75985;DHT22;65033;44.660;37.758;2024-03-22T04:13:21;6.22;118.99
75985;DHT22;65033;44.660;37.758;2024-03-22T04:14:24;6.14;118.99
75985;DHT22;65033;44.660;37.758;2024-03-22T04:15:26;6.06;118.99
75985;DHT22;65033;44.660;37.758;2024-03-22T04:16:28;6.04;118.99
75985;DHT22;65033;44.660;37.758;2024-03-22T04:17:30;5.98;118.99
75985;DHT22;65033;44.660;37.758;2024-03-22T04:18:33;5.95;118.99
75985;DHT22;65033;44.660;37.758;2024-03-22T04:19:35;5.92;118.99
75985;DHT22;65033;44.660;37.758;2024-03-22T04:20:37;5.90;118.99
75985;DHT22;65033;44.660;37.758;2024-03-22T04:21:39;5.95;118.99
75985;DHT22;65033;44.660;37.758;2024-03-22T04:22:41;5.96;118.99
75985;DHT22;65033;44.660;37.758;2024-03-22T04:23:44;6.00;118.99
75985;DHT22;65033;44.660;37.758;2024-03-22T04:24:46;5.99;118.99
75985;DHT22;65033;44.660;37.758;2024-03-22T04:25:53;5.96;118.99
75985;DHT22;65033;44.660;37.758;2024-03-22T04:26:55;5.97;118.99
75985;DHT22;65033;44.660;37.758;2024-03-22T04:27:57;5.99;118.99
75985;DHT22;65033;44.660;37.758;2024-03-22T04:29:01;5.97;118.99
75985;DHT22;65033;44.660;37.758;2024-03-22T04:30:03;5.96;118.99
75985;DHT22;65033;44.660;37.758;2024-03-22T04:31:07;5.99;118.99
75985;DHT22;65033;44.660;37.758;2024-03-22T04:32:12;6.02;118.99
75985;DHT22;65033;44.660;37.758;2024-03-22T04:33:16;6.06;118.99
75985;DHT22;65033;44.660;37.758;2024-03-22T04:34:19;6.08;118.99
75985;DHT22;65033;44.660;37.758;2024-03-22T04:35:21;5.97;118.99
75985;DHT22;65033;44.660;37.758;2024-03-22T04:36:23;5.96;118.99
75985;DHT22;65033;44.660;37.758;2024-03-22T04:37:25;6.29;118.99
75985;DHT22;65033;44.660;37.758;2024-03-22T04:38:28;7.67;118.99
75985;DHT22;65033;44.660;37.758;2024-03-22T04:39:31;7.63;118.99
75985;DHT22;65033;44.660;37.758;2024-03-22T04:40:33;7.28;118.99
75985;DHT22;65033;44.660;37.758;2024-03-22T04:41:36;7.05;118.99
75985;DHT22;65033;44.660;37.758;2024-03-22T04:42:38;6.80;118.99
75985;DHT22;65033;44.660;37.758;2024-03-22T04:43:40;6.63;118.99
75985;DHT22;65033;44.660;37.758;2024-03-22T04:44:44;6.49;118.99
75985;DHT22;65033;44.660;37.758;2024-03-22T04:45:47;6.34;118.99
75985;DHT22;65033;44.660;37.758;2024-03-22T04:46:49;6.22;118.99
75985;DHT22;65033;44.660;37.758;2024-03-22T04:47:51;6.13;118.99
75985;DHT22;65033;44.660;37.758;2024-03-22T04:48:53;6.02;118.99
75985;DHT22;65033;44.660;37.758;2024-03-22T04:49:56;5.96;118.99
75985;DHT22;65033;44.660;37.758;2024-03-22T04:50:58;5.91;118.99
75985;DHT22;65033;44.660;37.758;2024-03-22T04:52:00;5.91;118.99
75985;DHT22;65033;44.660;37.758;2024-03-22T04:53:03;5.87;118.99
75985;DHT22;65033;44.660;37.758;2024-03-22T04:54:05;5.81;118.99
75985;DHT22;65033;44.660;37.758;2024-03-22T04:55:08;5.78;118.99
75985;DHT22;65033;44.660;37.758;2024-03-22T04:56:10;5.74;118.99
75985;DHT22;65033;44.660;37.758;2024-03-22T04:57:12;5.68;118.99
75985;DHT22;65033;44.660;37.758;2024-03-22T04:58:15;5.65;118.99
75985;DHT22;65033;44.660;37.758;2024-03-22T04:59:20;5.62;118.99
75985;DHT22;65033;44.660;37.758;2024-03-22T05:00:24;5.59;118.99
75985;DHT22;65033;44.660;37.758;2024-03-22T05:01:33;5.54;118.99
75985;DHT22;65033;44.660;37.758;2024-03-22T05:02:35;5.49;118.99
75985;DHT22;65033;44.660;37.758;2024-03-22T05:03:37;5.49;118.99
75985;DHT22;65033;44.660;37.758;2024-03-22T05:04:39;5.53;118.99
75985;DHT22;65033;44.660;37.758;2024-03-22T05:05:42;5.56;118.99
75985;DHT22;65033;44.660;37.758;2024-03-22T05:06:44;5.59;118.99
75985;DHT22;65033;44.660;37.758;2024-03-22T05:07:48;5.52;118.99
75985;DHT22;65033;44.660;37.758;2024-03-22T05:08:50;5.49;118.99
75985;DHT22;65033;44.660;37.758;2024-03-22T05:09:52;5.42;118.99
75985;DHT22;65033;44.660;37.758;2024-03-22T05:10:56;5.36;118.99
75985;DHT22;65033;44.660;37.758;2024-03-22T05:12:07;5.30;118.99
75985;DHT22;65033;44.660;37.758;2024-03-22T05:13:09;5.24;118.99
75985;DHT22;65033;44.660;37.758;2024-03-22T05:14:12;5.23;118.99
75985;DHT22;65033;44.660;37.758;2024-03-22T05:15:20;5.19;118.99
75985;DHT22;65033;44.660;37.758;2024-03-22T05:16:24;6.14;118.99
75985;DHT22;65033;44.660;37.758;2024-03-22T05:17:26;7.27;118.99
75985;DHT22;65033;44.660;37.758;2024-03-22T05:18:28;6.82;118.99
75985;DHT22;65033;44.660;37.758;2024-03-22T05:19:30;6.61;118.99
75985;DHT22;65033;44.660;37.758;2024-03-22T05:20:33;6.49;118.99
75985;DHT22;65033;44.660;37.758;2024-03-22T05:21:35;6.40;118.99
75985;DHT22;65033;44.660;37.758;2024-03-22T05:22:37;6.38;118.99
75985;DHT22;65033;44.660;37.758;2024-03-22T05:23:39;6.34;118.99
75985;DHT22;65033;44.660;37.758;2024-03-22T05:24:42;6.26;118.99
75985;DHT22;65033;44.660;37.758;2024-03-22T05:25:44;6.25;118.99
75985;DHT22;65033;44.660;37.758;2024-03-22T05:26:46;6.20;118.99
75985;DHT22;65033;44.660;37.758;2024-03-22T05:27:48;6.16;118.99
75985;DHT22;65033;44.660;37.758;2024-03-22T05:28:51;6.14;118.99
75985;DHT22;65033;44.660;37.758;2024-03-22T05:29:56;6.11;118.99
75985;DHT22;65033;44.660;37.758;2024-03-22T05:30:58;6.09;118.99
75985;DHT22;65033;44.660;37.758;2024-03-22T05:32:01;6.10;118.99
75985;DHT22;65033;44.660;37.758;2024-03-22T05:33:05;6.01;118.99
75985;DHT22;65033;44.660;37.758;2024-03-22T05:34:07;5.94;118.99
75985;DHT22;65033;44.660;37.758;2024-03-22T05:35:10;5.93;118.99
75985;DHT22;65033;44.660;37.758;2024-03-22T05:36:12;5.93;118.99
75985;DHT22;65033;44.660;37.758;2024-03-22T05:37:17;6.37;118.99
75985;DHT22;65033;44.660;37.758;2024-03-22T05:38:19;7.18;118.99
75985;DHT22;65033;44.660;37.758;2024-03-22T05:39:22;6.97;118.99
75985;DHT22;65033;44.660;37.758;2024-03-22T05:40:24;6.89;118.99
75985;DHT22;65033;44.660;37.758;2024-03-22T05:41:26;6.81;118.99
75985;DHT22;65033;44.660;37.758;2024-03-22T05:42:31;6.76;118.99
75985;DHT22;65033;44.660;37.758;2024-03-22T05:43:33;6.71;118.99
75985;DHT22;65033;44.660;37.758;2024-03-22T05:44:41;6.65;118.99
75985;DHT22;65033;44.660;37.758;2024-03-22T05:45:43;6.64;118.99
75985;DHT22;65033;44.660;37.758;2024-03-22T05:46:46;6.60;118.99
75985;DHT22;65033;44.660;37.758;2024-03-22T05:47:50;6.59;118.99
75985;DHT22;65033;44.660;37.758;2024-03-22T05:48:52;6.56;118.99
75985;DHT22;65033;44.660;37.758;2024-03-22T05:49:57;6.58;118.99
75985;DHT22;65033;44.660;37.758;2024-03-22T05:50:59;6.46;118.99
75985;DHT22;65033;44.660;37.758;2024-03-22T05:52:06;6.36;118.99
75985;DHT22;65033;44.660;37.758;2024-03-22T05:53:09;6.31;118.99
75985;DHT22;65033;44.660;37.758;2024-03-22T05:54:11;6.27;118.99
75985;DHT22;65033;44.660;37.758;2024-03-22T05:55:13;6.17;118.99
75985;DHT22;65033;44.660;37.758;2024-03-22T05:56:16;6.37;118.99
75985;DHT22;65033;44.660;37.758;2024-03-22T05:57:18;6.88;118.99
75985;DHT22;65033;44.660;37.758;2024-03-22T05:58:20;7.27;118.99
75985;DHT22;65033;44.660;37.758;2024-03-22T05:59:22;7.08;118.99
75985;DHT22;65033;44.660;37.758;2024-03-22T06:00:25;6.90;118.99
75985;DHT22;65033;44.660;37.758;2024-03-22T06:01:29;6.76;118.99
75985;DHT22;65033;44.660;37.758;2024-03-22T06:02:31;6.60;118.99
75985;DHT22;65033;44.660;37.758;2024-03-22T06:03:34;6.42;118.99
75985;DHT22;65033;44.660;37.758;2024-03-22T06:04:37;6.33;118.99
75985;DHT22;65033;44.660;37.758;2024-03-22T06:05:39;6.22;118.99
75985;DHT22;65033;44.660;37.758;2024-03-22T06:06:42;6.17;118.99
75985;DHT22;65033;44.660;37.758;2024-03-22T06:07:44;6.19;118.99
75985;DHT22;65033;44.660;37.758;2024-03-22T06:08:48;6.22;118.99
75985;DHT22;65033;44.660;37.758;2024-03-22T06:09:54;6.24;118.99
75985;DHT22;65033;44.660;37.758;2024-03-22T06:10:56;6.26;118.99
75985;DHT22;65033;44.660;37.758;2024-03-22T06:11:58;6.33;118.99
75985;DHT22;65033;44.660;37.758;2024-03-22T06:13:00;6.36;118.99
75985;DHT22;65033;44.660;37.758;2024-03-22T06:14:03;6.39;118.99
75985;DHT22;65033;44.660;37.758;2024-03-22T06:15:06;6.41;118.99
75985;DHT22;65033;44.660;37.758;2024-03-22T06:16:08;6.44;118.99
75985;DHT22;65033;44.660;37.758;2024-03-22T06:17:11;6.44;118.99
75985;DHT22;65033;44.660;37.758;2024-03-22T06:18:13;6.48;118.99
75985;DHT22;65033;44.660;37.758;2024-03-22T06:19:17;6.48;118.99
75985;DHT22;65033;44.660;37.758;2024-03-22T06:20:19;6.46;118.99
75985;DHT22;65033;44.660;37.758;2024-03-22T06:21:22;6.44;118.99
75985;DHT22;65033;44.660;37.758;2024-03-22T06:22:26;6.45;118.99
75985;DHT22;65033;44.660;37.758;2024-03-22T06:23:29;6.46;118.99
75985;DHT22;65033;44.660;37.758;2024-03-22T06:24:31;6.41;118.99
75985;DHT22;65033;44.660;37.758;2024-03-22T06:25:33;6.44;118.99
75985;DHT22;65033;44.660;37.758;2024-03-22T06:26:35;6.74;118.99
75985;DHT22;65033;44.660;37.758;2024-03-22T06:27:37;8.13;118.99
75985;DHT22;65033;44.660;37.758;2024-03-22T06:28:40;7.72;118.99
75985;DHT22;65033;44.660;37.758;2024-03-22T06:29:42;7.54;118.99